Island Lookout — WDF6311 — position and weather

sailwx.info

Track history (hours):
 
Tides and Currents Weather Stations Pressure Air Temp Water Temp Dewpoint Dewpoint Depression Visibility Wind Speed Wind Dir Waves Ship Positions

Island Lookout

Owner: Stevens Towing Company Inc., Yonges Island, SC. More information available from US FCC via Universal Licensing System and Coast Guard Vessel Documentation Center.

Last reported at 2017-Aug-17 08:00 UTC. Time now 2017-Aug-17 07:59 UTC.
Position N 36°46' W 076°18'.

Length 22 m; draft 2.9 m.

Type: Towing. MMSI: 367472930.

Date/timePositionNaut miles runAvg speedWind from/ knotsBaromVisibWave heightAir tempDewpointWater temp
2017-Aug-17 08:00N 36°46' W 076°18'1 1.2
2017-Aug-17 07:30N 36°47' W 076°18'0 0.1
2017-Aug-17 07:00N 36°47' W 076°18'0 0.1
2017-Aug-17 06:30N 36°47' W 076°18'0 0.1
2017-Aug-17 06:00N 36°47' W 076°18'2 3.7
2017-Aug-17 05:30N 36°48' W 076°17'3 5.8
2017-Aug-17 05:01N 36°51' W 076°18'3 5.8
2017-Aug-17 04:29N 36°54' W 076°20'3 5.8
2017-Aug-17 03:59N 36°57' W 076°20'78 5.3
2017-Aug-16 13:18N 38°15' W 076°19'2 6.1
2017-Aug-16 12:56N 38°17' W 076°20'3 6.2
2017-Aug-16 12:30N 38°19' W 076°21'3 6.4
2017-Aug-16 11:59N 38°23' W 076°22'3 6.4
2017-Aug-16 11:30N 38°26' W 076°23'4 6.4
2017-Aug-16 10:51N 38°29' W 076°26'5 6.6
2017-Aug-16 10:04N 38°34' W 076°27'0 6.8
2017-Aug-16 10:00N 38°35' W 076°27'4 6.8
2017-Aug-16 09:26N 38°39' W 076°27'3 6.7
2017-Aug-16 08:55N 38°42' W 076°27'4 6.6
2017-Aug-16 08:15N 38°46' W 076°27'2 6.6
2017-Aug-16 08:00N 38°48' W 076°27'3 6.2
2017-Aug-16 07:30N 38°51' W 076°26'3 5.9
2017-Aug-16 06:58N 38°54' W 076°25'3 5.7
2017-Aug-16 06:30N 38°57' W 076°24'3 6.0
2017-Aug-16 06:00N 38°60' W 076°23'3 5.0
2017-Aug-16 05:26N 39°02' W 076°23'5 5.2
2017-Aug-16 04:32N 39°07' W 076°24'0 5.7
2017-Aug-16 04:28N 39°08' W 076°24'3 5.2
2017-Aug-16 03:57N 39°10' W 076°25'2 5.6
2017-Aug-16 03:30N 39°11' W 076°28'3 5.6
2017-Aug-16 03:00N 39°13' W 076°31'2 3.5
2017-Aug-16 02:30N 39°13' W 076°33'3 5.1
2017-Aug-16 02:00N 39°12' W 076°31'0 0.4
2017-Aug-16 01:30N 39°12' W 076°30'3 6.2
2017-Aug-16 01:00N 39°14' W 076°33'3 5.1
2017-Aug-16 00:30N 39°16' W 076°35'1 1.7
2017-Aug-16 00:00N 39°16' W 076°34'2 4.5
2017-Aug-15 23:30N 39°13' W 076°34'0 0.3
2017-Aug-15 23:00N 39°14' W 076°34'0 0.0
2017-Aug-15 22:30N 39°14' W 076°34'1 1.2
2017-Aug-15 22:00N 39°13' W 076°33'3 5.8
2017-Aug-15 21:30N 39°16' W 076°35'0 0.0
2017-Aug-15 20:58N 39°16' W 076°35'0 0.0
2017-Aug-15 20:30N 39°16' W 076°35'0 0.0
2017-Aug-15 19:58N 39°16' W 076°35'0 0.0
2017-Aug-15 19:24N 39°16' W 076°35'0 0.0
2017-Aug-15 19:00N 39°16' W 076°35'0 0.0
2017-Aug-15 18:30N 39°16' W 076°35'0 0.0
2017-Aug-15 18:00N 39°16' W 076°35'0 0.0
2017-Aug-15 17:30N 39°16' W 076°35'0 0.0
2017-Aug-15 17:00N 39°16' W 076°35'0 0.0
2017-Aug-15 16:30N 39°16' W 076°35'0 0.0
2017-Aug-15 16:00N 39°16' W 076°35'0 0.0
2017-Aug-15 15:30N 39°16' W 076°35'0 0.0
2017-Aug-15 15:00N 39°16' W 076°35'0 0.0
2017-Aug-15 14:30N 39°16' W 076°35'0 0.0
2017-Aug-15 14:00N 39°16' W 076°35'0 0.0
2017-Aug-15 13:30N 39°16' W 076°35'0 0.0
2017-Aug-15 13:00N 39°16' W 076°35'0 0.0
2017-Aug-15 12:30N 39°16' W 076°35'0 0.0
2017-Aug-15 12:00N 39°16' W 076°35'0 0.0
2017-Aug-15 11:30N 39°16' W 076°35'0 0.0
2017-Aug-15 11:00N 39°16' W 076°35'0 0.0
2017-Aug-15 10:30N 39°16' W 076°35'0 0.0
2017-Aug-15 10:00N 39°16' W 076°35'0 0.0
2017-Aug-15 09:30N 39°16' W 076°35'0 0.0
2017-Aug-15 09:00N 39°16' W 076°35'0 0.0
2017-Aug-15 08:30N 39°16' W 076°35'0 0.0
2017-Aug-15 08:00N 39°16' W 076°35'0 0.0
2017-Aug-15 07:30N 39°16' W 076°35'0 0.0
2017-Aug-15 07:00N 39°16' W 076°35'0 0.0
2017-Aug-15 06:30N 39°16' W 076°35'0 0.0
2017-Aug-15 06:00N 39°16' W 076°35'0 0.0
2017-Aug-15 05:30N 39°16' W 076°35'0 0.0
2017-Aug-15 05:00N 39°16' W 076°35'0 0.0
2017-Aug-15 04:30N 39°16' W 076°35'0 0.0
2017-Aug-15 04:00N 39°16' W 076°35'0 0.0
2017-Aug-15 03:30N 39°16' W 076°35'0 0.4
2017-Aug-15 03:00N 39°16' W 076°35'1 1.4
2017-Aug-15 02:30N 39°17' W 076°36'0 0.5
2017-Aug-15 02:00N 39°17' W 076°35'0 1.0
2017-Aug-15 01:30N 39°16' W 076°35'3 5.9
2017-Aug-15 01:00N 39°14' W 076°33'4 7.1
2017-Aug-15 00:30N 39°12' W 076°29'4 7.1
2017-Aug-15 00:00N 39°10' W 076°25'5 6.6
2017-Aug-14 23:16N 39°05' W 076°24'2 6.6
2017-Aug-14 23:00N 39°03' W 076°23'3 6.2
2017-Aug-14 22:30N 39°00' W 076°23'3 5.9
2017-Aug-14 22:00N 38°57' W 076°24'5 6.1
2017-Aug-14 21:12N 38°53' W 076°26'1 6.3
2017-Aug-14 21:00N 38°51' W 076°26'5 6.4
2017-Aug-14 20:11N 38°46' W 076°27'66 6.6
2017-Aug-14 10:09N 37°42' W 076°12'2 7.1
2017-Aug-14 09:50N 37°39' W 076°12'43 6.5
2017-Aug-14 03:12N 36°57' W 076°20'1 6.2
2017-Aug-14 02:59N 36°55' W 076°20'3 6.0
2017-Aug-14 02:30N 36°53' W 076°20'2 4.4
2017-Aug-14 02:00N 36°51' W 076°18'3 6.4
2017-Aug-14 01:30N 36°48' W 076°18'2 4.0
2017-Aug-14 01:00N 36°46' W 076°18'2 4.8
2017-Aug-14 00:30N 36°44' W 076°16'1 2.8
2017-Aug-14 00:00N 36°43' W 076°15'9 5.1
2017-Aug-13 22:17N 36°41' W 076°04'2 5.4
2017-Aug-13 21:58N 36°39' W 076°04'  
2017-Aug-09 13:15N 36°43' W 076°05'7 3.4
2017-Aug-09 11:08N 36°43' W 076°14'0 3.6
2017-Aug-09 11:00N 36°43' W 076°15'0 0.1
2017-Aug-09 09:31N 36°43' W 076°15'0 0.6
2017-Aug-09 09:15N 36°43' W 076°15'0 0.2
2017-Aug-09 08:48N 36°43' W 076°15'0 1.4
2017-Aug-09 08:30N 36°44' W 076°15'2 3.3
2017-Aug-09 07:59N 36°44' W 076°18'2 4.9
2017-Aug-09 07:30N 36°46' W 076°18'1 2.9
2017-Aug-09 07:00N 36°48' W 076°18'3 5.6
2017-Aug-09 06:30N 36°51' W 076°18'3 5.6
2017-Aug-09 06:00N 36°53' W 076°20'3 5.9
2017-Aug-09 05:28N 36°56' W 076°20'115 6.3
2017-Aug-08 11:10N 38°51' W 076°26'8 6.3
2017-Aug-08 09:53N 38°59' W 076°23'7 5.8
2017-Aug-08 08:37N 39°06' W 076°21'1 6.1
2017-Aug-08 08:28N 39°07' W 076°20'3 6.6
2017-Aug-08 07:59N 39°09' W 076°19'4 7.1
2017-Aug-08 07:29N 39°12' W 076°16'4 7.1
2017-Aug-08 06:57N 39°16' W 076°14'4 7.6
2017-Aug-08 06:29N 39°19' W 076°13'4 7.8
2017-Aug-08 05:59N 39°22' W 076°09'4 7.7
2017-Aug-08 05:30N 39°23' W 076°05'4 7.2
2017-Aug-08 05:00N 39°26' W 076°01'4 7.3
2017-Aug-08 04:31N 39°28' W 075°58'4 7.1
2017-Aug-08 04:01N 39°30' W 075°54'4 7.1
2017-Aug-08 03:31N 39°32' W 075°50'3 6.7
2017-Aug-08 03:01N 39°32' W 075°46'3 6.3
2017-Aug-08 02:31N 39°33' W 075°42'3 5.9
2017-Aug-08 02:00N 39°33' W 075°38'3 5.7
2017-Aug-08 01:31N 39°34' W 075°34'2 3.8
2017-Aug-08 01:01N 39°35' W 075°34'3 5.1
2017-Aug-08 00:31N 39°38' W 075°34'3 6.8
2017-Aug-08 00:01N 39°41' W 075°32'4 7.1
2017-Aug-07 23:31N 39°44' W 075°30'4 8.0
2017-Aug-07 23:00N 39°47' W 075°27'4 8.1
2017-Aug-07 22:31N 39°50' W 075°23'4 8.1
2017-Aug-07 22:00N 39°51' W 075°18'4 7.9
2017-Aug-07 21:30N 39°52' W 075°13'4 7.3
2017-Aug-07 21:01N 39°54' W 075°08'2 4.8
2017-Aug-07 20:30N 39°56' W 075°08'3 5.4
2017-Aug-07 20:00N 39°53' W 075°08'2 4.9
2017-Aug-07 19:30N 39°53' W 075°12'0 0.0
2017-Aug-07 19:00N 39°53' W 075°12'0 0.0
2017-Aug-07 18:30N 39°53' W 075°12'1 1.4
2017-Aug-07 18:00N 39°54' W 075°12'2 3.4
2017-Aug-07 17:30N 39°53' W 075°10'3 5.4
2017-Aug-07 17:00N 39°55' W 075°08'1 2.5
2017-Aug-07 16:30N 39°56' W 075°08'0 0.0
2017-Aug-07 16:00N 39°56' W 075°08'0 0.0
2017-Aug-07 15:31N 39°56' W 075°08'0 0.0
2017-Aug-07 15:00N 39°56' W 075°08'0 0.0
2017-Aug-07 14:31N 39°56' W 075°08'0 0.0
2017-Aug-07 14:00N 39°56' W 075°08'79153.4
2017-Aug-07 13:30N 39°14' W 076°34'79162.2
2017-Aug-07 13:00N 39°56' W 075°08'0 0.0
2017-Aug-07 12:31N 39°56' W 075°08'0 0.0
2017-Aug-07 12:00N 39°56' W 075°08'77150.4
2017-Aug-07 11:30N 39°13' W 076°31'77159.2
2017-Aug-07 11:00N 39°56' W 075°08'0 0.0
2017-Aug-07 10:31N 39°56' W 075°08'0 0.0
2017-Aug-07 10:00N 39°56' W 075°08'0 0.0
2017-Aug-07 09:30N 39°56' W 075°08'0 0.0
2017-Aug-07 09:00N 39°56' W 075°08'0 0.0
2017-Aug-07 08:30N 39°56' W 075°08'0 0.8
2017-Aug-07 08:01N 39°56' W 075°08'  
Track history (hours):
 
Tides and Currents Weather Stations Pressure Air Temp Water Temp Dewpoint Dewpoint Depression Visibility Wind Speed Wind Dir Waves Ship Positions

Island Lookout

Owner: Stevens Towing Company Inc., Yonges Island, SC. More information available from US FCC via Universal Licensing System and Coast Guard Vessel Documentation Center.

Last reported at 2017-Aug-17 08:00 UTC. Time now 2017-Aug-17 07:59 UTC.
Position N 36°46' W 076°18'.

Length 22 m; draft 2.9 m.

Type: Towing. MMSI: 367472930.

Date/timePositionNaut miles runAvg speedWind from/ knotsBaromVisibWave heightAir tempDewpointWater temp
2017-Aug-17 08:00N 36°46' W 076°18'1 1.2
2017-Aug-17 07:30N 36°47' W 076°18'0 0.1
2017-Aug-17 07:00N 36°47' W 076°18'0 0.1
2017-Aug-17 06:30N 36°47' W 076°18'0 0.1
2017-Aug-17 06:00N 36°47' W 076°18'2 3.7
2017-Aug-17 05:30N 36°48' W 076°17'3 5.8
2017-Aug-17 05:01N 36°51' W 076°18'3 5.8
2017-Aug-17 04:29N 36°54' W 076°20'3 5.8
2017-Aug-17 03:59N 36°57' W 076°20'78 5.3
2017-Aug-16 13:18N 38°15' W 076°19'2 6.1
2017-Aug-16 12:56N 38°17' W 076°20'3 6.2
2017-Aug-16 12:30N 38°19' W 076°21'3 6.4
2017-Aug-16 11:59N 38°23' W 076°22'3 6.4
2017-Aug-16 11:30N 38°26' W 076°23'4 6.4
2017-Aug-16 10:51N 38°29' W 076°26'5 6.6
2017-Aug-16 10:04N 38°34' W 076°27'0 6.8
2017-Aug-16 10:00N 38°35' W 076°27'4 6.8
2017-Aug-16 09:26N 38°39' W 076°27'3 6.7
2017-Aug-16 08:55N 38°42' W 076°27'4 6.6
2017-Aug-16 08:15N 38°46' W 076°27'2 6.6
2017-Aug-16 08:00N 38°48' W 076°27'3 6.2
2017-Aug-16 07:30N 38°51' W 076°26'3 5.9
2017-Aug-16 06:58N 38°54' W 076°25'3 5.7
2017-Aug-16 06:30N 38°57' W 076°24'3 6.0
2017-Aug-16 06:00N 38°60' W 076°23'3 5.0
2017-Aug-16 05:26N 39°02' W 076°23'5 5.2
2017-Aug-16 04:32N 39°07' W 076°24'0 5.7
2017-Aug-16 04:28N 39°08' W 076°24'3 5.2
2017-Aug-16 03:57N 39°10' W 076°25'2 5.6
2017-Aug-16 03:30N 39°11' W 076°28'3 5.6
2017-Aug-16 03:00N 39°13' W 076°31'2 3.5
2017-Aug-16 02:30N 39°13' W 076°33'3 5.1
2017-Aug-16 02:00N 39°12' W 076°31'0 0.4
2017-Aug-16 01:30N 39°12' W 076°30'3 6.2
2017-Aug-16 01:00N 39°14' W 076°33'3 5.1
2017-Aug-16 00:30N 39°16' W 076°35'1 1.7
2017-Aug-16 00:00N 39°16' W 076°34'2 4.5
2017-Aug-15 23:30N 39°13' W 076°34'0 0.3
2017-Aug-15 23:00N 39°14' W 076°34'0 0.0
2017-Aug-15 22:30N 39°14' W 076°34'1 1.2
2017-Aug-15 22:00N 39°13' W 076°33'3 5.8
2017-Aug-15 21:30N 39°16' W 076°35'0 0.0
2017-Aug-15 20:58N 39°16' W 076°35'0 0.0
2017-Aug-15 20:30N 39°16' W 076°35'0 0.0
2017-Aug-15 19:58N 39°16' W 076°35'0 0.0
2017-Aug-15 19:24N 39°16' W 076°35'0 0.0
2017-Aug-15 19:00N 39°16' W 076°35'0 0.0
2017-Aug-15 18:30N 39°16' W 076°35'0 0.0
2017-Aug-15 18:00N 39°16' W 076°35'0 0.0
2017-Aug-15 17:30N 39°16' W 076°35'0 0.0
2017-Aug-15 17:00N 39°16' W 076°35'0 0.0
2017-Aug-15 16:30N 39°16' W 076°35'0 0.0
2017-Aug-15 16:00N 39°16' W 076°35'0 0.0
2017-Aug-15 15:30N 39°16' W 076°35'0 0.0
2017-Aug-15 15:00N 39°16' W 076°35'0 0.0
2017-Aug-15 14:30N 39°16' W 076°35'0 0.0
2017-Aug-15 14:00N 39°16' W 076°35'0 0.0
2017-Aug-15 13:30N 39°16' W 076°35'0 0.0
2017-Aug-15 13:00N 39°16' W 076°35'0 0.0
2017-Aug-15 12:30N 39°16' W 076°35'0 0.0
2017-Aug-15 12:00N 39°16' W 076°35'0 0.0
2017-Aug-15 11:30N 39°16' W 076°35'0 0.0
2017-Aug-15 11:00N 39°16' W 076°35'0 0.0
2017-Aug-15 10:30N 39°16' W 076°35'0 0.0
2017-Aug-15 10:00N 39°16' W 076°35'0 0.0
2017-Aug-15 09:30N 39°16' W 076°35'0 0.0
2017-Aug-15 09:00N 39°16' W 076°35'0 0.0
2017-Aug-15 08:30N 39°16' W 076°35'0 0.0
2017-Aug-15 08:00N 39°16' W 076°35'0 0.0
2017-Aug-15 07:30N 39°16' W 076°35'0 0.0
2017-Aug-15 07:00N 39°16' W 076°35'0 0.0
2017-Aug-15 06:30N 39°16' W 076°35'0 0.0
2017-Aug-15 06:00N 39°16' W 076°35'0 0.0
2017-Aug-15 05:30N 39°16' W 076°35'0 0.0
2017-Aug-15 05:00N 39°16' W 076°35'0 0.0
2017-Aug-15 04:30N 39°16' W 076°35'0 0.0
2017-Aug-15 04:00N 39°16' W 076°35'0 0.0
2017-Aug-15 03:30N 39°16' W 076°35'0 0.4
2017-Aug-15 03:00N 39°16' W 076°35'1 1.4
2017-Aug-15 02:30N 39°17' W 076°36'0 0.5
2017-Aug-15 02:00N 39°17' W 076°35'0 1.0
2017-Aug-15 01:30N 39°16' W 076°35'3 5.9
2017-Aug-15 01:00N 39°14' W 076°33'4 7.1
2017-Aug-15 00:30N 39°12' W 076°29'4 7.1
2017-Aug-15 00:00N 39°10' W 076°25'5 6.6
2017-Aug-14 23:16N 39°05' W 076°24'2 6.6
2017-Aug-14 23:00N 39°03' W 076°23'3 6.2
2017-Aug-14 22:30N 39°00' W 076°23'3 5.9
2017-Aug-14 22:00N 38°57' W 076°24'5 6.1
2017-Aug-14 21:12N 38°53' W 076°26'1 6.3
2017-Aug-14 21:00N 38°51' W 076°26'5 6.4
2017-Aug-14 20:11N 38°46' W 076°27'66 6.6
2017-Aug-14 10:09N 37°42' W 076°12'2 7.1
2017-Aug-14 09:50N 37°39' W 076°12'43 6.5
2017-Aug-14 03:12N 36°57' W 076°20'1 6.2
2017-Aug-14 02:59N 36°55' W 076°20'3 6.0
2017-Aug-14 02:30N 36°53' W 076°20'2 4.4
2017-Aug-14 02:00N 36°51' W 076°18'3 6.4
2017-Aug-14 01:30N 36°48' W 076°18'2 4.0
2017-Aug-14 01:00N 36°46' W 076°18'2 4.8
2017-Aug-14 00:30N 36°44' W 076°16'1 2.8
2017-Aug-14 00:00N 36°43' W 076°15'9 5.1
2017-Aug-13 22:17N 36°41' W 076°04'2 5.4
2017-Aug-13 21:58N 36°39' W 076°04'  
2017-Aug-09 13:15N 36°43' W 076°05'7 3.4
2017-Aug-09 11:08N 36°43' W 076°14'0 3.6
2017-Aug-09 11:00N 36°43' W 076°15'0 0.1
2017-Aug-09 09:31N 36°43' W 076°15'0 0.6
2017-Aug-09 09:15N 36°43' W 076°15'0 0.2
2017-Aug-09 08:48N 36°43' W 076°15'0 1.4
2017-Aug-09 08:30N 36°44' W 076°15'2 3.3
2017-Aug-09 07:59N 36°44' W 076°18'2 4.9
2017-Aug-09 07:30N 36°46' W 076°18'1 2.9
2017-Aug-09 07:00N 36°48' W 076°18'3 5.6
2017-Aug-09 06:30N 36°51' W 076°18'3 5.6
2017-Aug-09 06:00N 36°53' W 076°20'3 5.9
2017-Aug-09 05:28N 36°56' W 076°20'115 6.3
2017-Aug-08 11:10N 38°51' W 076°26'8 6.3
2017-Aug-08 09:53N 38°59' W 076°23'7 5.8
2017-Aug-08 08:37N 39°06' W 076°21'1 6.1
2017-Aug-08 08:28N 39°07' W 076°20'3 6.6
2017-Aug-08 07:59N 39°09' W 076°19'4 7.1
2017-Aug-08 07:29N 39°12' W 076°16'4 7.1
2017-Aug-08 06:57N 39°16' W 076°14'4 7.6
2017-Aug-08 06:29N 39°19' W 076°13'4 7.8
2017-Aug-08 05:59N 39°22' W 076°09'4 7.7
2017-Aug-08 05:30N 39°23' W 076°05'4 7.2
2017-Aug-08 05:00N 39°26' W 076°01'4 7.3
2017-Aug-08 04:31N 39°28' W 075°58'4 7.1
2017-Aug-08 04:01N 39°30' W 075°54'4 7.1
2017-Aug-08 03:31N 39°32' W 075°50'3 6.7
2017-Aug-08 03:01N 39°32' W 075°46'3 6.3
2017-Aug-08 02:31N 39°33' W 075°42'3 5.9
2017-Aug-08 02:00N 39°33' W 075°38'3 5.7
2017-Aug-08 01:31N 39°34' W 075°34'2 3.8
2017-Aug-08 01:01N 39°35' W 075°34'3 5.1
2017-Aug-08 00:31N 39°38' W 075°34'3 6.8
2017-Aug-08 00:01N 39°41' W 075°32'4 7.1
2017-Aug-07 23:31N 39°44' W 075°30'4 8.0
2017-Aug-07 23:00N 39°47' W 075°27'4 8.1
2017-Aug-07 22:31N 39°50' W 075°23'4 8.1
2017-Aug-07 22:00N 39°51' W 075°18'4 7.9
2017-Aug-07 21:30N 39°52' W 075°13'4 7.3
2017-Aug-07 21:01N 39°54' W 075°08'2 4.8
2017-Aug-07 20:30N 39°56' W 075°08'3 5.4
2017-Aug-07 20:00N 39°53' W 075°08'2 4.9
2017-Aug-07 19:30N 39°53' W 075°12'0 0.0
2017-Aug-07 19:00N 39°53' W 075°12'0 0.0
2017-Aug-07 18:30N 39°53' W 075°12'1 1.4
2017-Aug-07 18:00N 39°54' W 075°12'2 3.4
2017-Aug-07 17:30N 39°53' W 075°10'3 5.4
2017-Aug-07 17:00N 39°55' W 075°08'1 2.5
2017-Aug-07 16:30N 39°56' W 075°08'0 0.0
2017-Aug-07 16:00N 39°56' W 075°08'0 0.0
2017-Aug-07 15:31N 39°56' W 075°08'0 0.0
2017-Aug-07 15:00N 39°56' W 075°08'0 0.0
2017-Aug-07 14:31N 39°56' W 075°08'0 0.0
2017-Aug-07 14:00N 39°56' W 075°08'79153.4
2017-Aug-07 13:30N 39°14' W 076°34'79162.2
2017-Aug-07 13:00N 39°56' W 075°08'0 0.0
2017-Aug-07 12:31N 39°56' W 075°08'0 0.0
2017-Aug-07 12:00N 39°56' W 075°08'77150.4
2017-Aug-07 11:30N 39°13' W 076°31'77159.2
2017-Aug-07 11:00N 39°56' W 075°08'0 0.0
2017-Aug-07 10:31N 39°56' W 075°08'0 0.0
2017-Aug-07 10:00N 39°56' W 075°08'0 0.0
2017-Aug-07 09:30N 39°56' W 075°08'0 0.0
2017-Aug-07 09:00N 39°56' W 075°08'0 0.0
2017-Aug-07 08:30N 39°56' W 075°08'0 0.8
2017-Aug-07 08:01N 39°56' W 075°08'  

Dump ship's entire track history